createdAt,value
2023-07-25T00:00:48.640Z,79.00
2023-07-25T00:01:50.632Z,79.11
2023-07-25T00:02:52.633Z,79.62
2023-07-25T00:03:54.651Z,79.78
2023-07-25T00:04:56.588Z,80.28
2023-07-25T00:05:58.911Z,80.39
2023-07-25T00:07:00.823Z,80.88
2023-07-25T00:08:03.146Z,80.94
2023-07-25T00:09:05.462Z,80.95
2023-07-25T00:10:08.968Z,81.03
2023-07-25T00:11:15.128Z,81.40
2023-07-25T00:12:17.017Z,81.47
2023-07-25T00:13:19.087Z,81.86
2023-07-25T00:14:21.283Z,82.13
2023-07-25T00:15:23.285Z,82.11
2023-07-25T00:16:25.270Z,81.81
2023-07-25T00:17:27.245Z,81.79
2023-07-25T00:18:29.110Z,82.25
2023-07-25T00:19:31.238Z,82.54
2023-07-25T00:20:33.211Z,82.58
2023-07-25T00:21:35.535Z,82.10
2023-07-25T00:22:37.553Z,82.03
2023-07-25T00:23:39.543Z,81.54
2023-07-25T00:24:41.659Z,80.95
2023-07-25T00:25:43.672Z,80.56
2023-07-25T00:26:45.739Z,80.03
2023-07-25T00:27:47.745Z,79.62
2023-07-25T00:28:49.639Z,79.69
2023-07-25T00:29:54.835Z,79.74
2023-07-25T00:30:56.665Z,79.97
2023-07-25T00:31:58.723Z,79.33
2023-07-25T00:33:00.552Z,79.82
2023-07-25T00:34:02.647Z,79.38
2023-07-25T00:35:05.027Z,79.10
2023-07-25T00:36:07.453Z,79.12
2023-07-25T00:37:09.428Z,79.63
2023-07-25T00:38:11.450Z,79.88
2023-07-25T00:39:13.493Z,79.56
2023-07-25T00:40:15.375Z,79.42
2023-07-25T00:41:17.226Z,78.87
2023-07-25T00:44:13.773Z,78.53
2023-07-25T00:45:15.965Z,77.78
2023-07-25T00:46:18.420Z,78.16
2023-07-25T00:47:22.584Z,77.78
2023-07-25T00:48:24.700Z,78.05
2023-07-25T00:49:27.469Z,78.29
2023-07-25T00:50:30.718Z,78.93
2023-07-25T00:51:33.886Z,79.46
2023-07-25T00:52:36.377Z,79.32
2023-07-25T00:53:38.743Z,79.21
2023-07-25T00:54:46.670Z,79.40
2023-07-25T00:55:49.625Z,79.74
2023-07-25T00:56:51.715Z,79.54
2023-07-25T00:57:53.900Z,79.68
2023-07-25T00:58:56.337Z,79.81
2023-07-25T00:59:58.427Z,79.12
2023-07-25T01:01:05.311Z,78.97
2023-07-25T01:02:07.459Z,78.68
2023-07-25T01:03:09.646Z,77.91
2023-07-25T01:04:11.916Z,78.11
2023-07-25T01:05:14.037Z,77.38
2023-07-25T01:06:18.631Z,77.61
2023-07-25T01:07:20.723Z,77.00
2023-07-25T01:08:22.701Z,77.28
2023-07-25T01:09:42.362Z,76.69
2023-07-25T01:10:44.529Z,77.00
2023-07-25T01:11:46.637Z,77.50
2023-07-25T01:12:48.666Z,77.68
2023-07-25T01:13:51.833Z,77.96
2023-07-25T01:14:54.052Z,78.04
2023-07-25T01:15:57.670Z,78.22
2023-07-25T01:17:21.765Z,78.67
2023-07-25T01:18:23.777Z,78.55
2023-07-25T01:19:30.264Z,78.81
2023-07-25T01:20:35.205Z,78.90
2023-07-25T01:21:37.848Z,79.40
2023-07-25T01:22:40.346Z,79.63
2023-07-25T01:23:44.132Z,79.73
2023-07-25T01:24:48.347Z,80.17
2023-07-25T01:25:50.590Z,79.83
2023-07-25T01:26:52.668Z,79.48
2023-07-25T01:27:54.707Z,78.74
2023-07-25T01:28:56.658Z,78.42
2023-07-25T01:29:58.731Z,77.79
2023-07-25T01:31:01.007Z,77.54
2023-07-25T01:32:03.179Z,77.79
2023-07-25T01:33:05.851Z,77.78
2023-07-25T01:34:07.897Z,77.99
2023-07-25T01:35:09.932Z,78.45
2023-07-25T01:36:11.964Z,78.65
2023-07-25T01:37:14.045Z,78.85
2023-07-25T01:38:16.298Z,78.39
2023-07-25T01:39:18.401Z,77.82
2023-07-25T01:40:20.400Z,77.83
2023-07-25T01:41:22.444Z,77.53
2023-07-25T01:42:24.586Z,77.69
2023-07-25T01:43:26.753Z,77.89
2023-07-25T01:44:28.844Z,77.99
2023-07-25T01:45:30.946Z,77.97
2023-07-25T01:46:33.013Z,77.25
2023-07-25T01:47:35.320Z,76.94
2023-07-25T01:48:37.469Z,77.03
2023-07-25T01:49:39.639Z,77.25
2023-07-25T01:50:41.651Z,76.70
2023-07-25T01:51:44.381Z,77.11
2023-07-25T01:52:46.421Z,76.58
2023-07-25T01:53:48.732Z,76.10
2023-07-25T01:54:51.255Z,75.85
2023-07-25T01:55:53.382Z,75.94
2023-07-25T01:56:55.437Z,76.03
2023-07-25T01:57:57.359Z,75.96
2023-07-25T01:58:59.575Z,75.79
2023-07-25T02:00:01.760Z,76.25
2023-07-25T02:01:06.973Z,76.34
2023-07-25T02:02:09.204Z,76.46
2023-07-25T02:03:12.374Z,76.58
2023-07-25T02:04:14.636Z,76.28
2023-07-25T02:05:16.717Z,76.48
2023-07-25T02:06:18.866Z,76.41
2023-07-25T02:07:21.090Z,76.82
2023-07-25T02:08:23.185Z,77.23
2023-07-25T02:09:25.283Z,77.15
2023-07-25T02:10:29.164Z,76.84
2023-07-25T02:11:31.608Z,76.92
2023-07-25T02:12:33.925Z,76.70
2023-07-25T02:13:36.123Z,76.38
2023-07-25T02:14:38.206Z,76.47
2023-07-25T02:15:40.250Z,76.47
2023-07-25T02:16:42.239Z,75.96
2023-07-25T02:17:44.476Z,76.10
2023-07-25T02:18:47.559Z,75.97
2023-07-25T02:19:49.702Z,76.09
2023-07-25T02:20:51.884Z,75.76
2023-07-25T02:21:53.876Z,75.70
2023-07-25T02:22:56.040Z,75.48
2023-07-25T02:23:58.019Z,75.56
2023-07-25T02:25:00.097Z,75.09
2023-07-25T02:26:02.254Z,74.87
2023-07-25T02:27:04.794Z,74.64
2023-07-25T02:28:06.960Z,74.62
2023-07-25T02:29:09.027Z,74.30
2023-07-25T02:30:11.894Z,74.17
2023-07-25T02:31:14.207Z,74.13
2023-07-25T02:32:16.206Z,73.78
2023-07-25T02:33:18.315Z,73.72
2023-07-25T02:34:20.347Z,73.54
2023-07-25T02:35:22.479Z,73.28
2023-07-25T02:36:24.419Z,73.42
2023-07-25T02:37:26.596Z,73.62
2023-07-25T02:38:28.675Z,73.42
2023-07-25T02:39:30.830Z,73.08
2023-07-25T02:40:32.885Z,73.22
2023-07-25T02:41:34.919Z,73.25
2023-07-25T02:42:36.979Z,72.98
2023-07-25T02:43:39.236Z,72.72
2023-07-25T02:44:41.218Z,72.28
2023-07-25T02:45:43.395Z,71.92
2023-07-25T02:46:45.431Z,71.60
2023-07-25T02:47:47.669Z,70.93
2023-07-25T02:48:49.744Z,69.81
2023-07-25T02:49:51.867Z,70.28
2023-07-25T02:50:53.902Z,70.24
2023-07-25T02:51:56.099Z,69.85
2023-07-25T02:52:58.114Z,70.18
2023-07-25T02:54:00.176Z,70.12
2023-07-25T02:55:02.376Z,70.37
2023-07-25T02:56:06.259Z,69.53
2023-07-25T02:57:08.239Z,68.57
2023-07-25T02:58:10.344Z,67.19
2023-07-25T02:59:12.301Z,65.95
2023-07-25T03:00:15.126Z,65.31
2023-07-25T03:01:17.414Z,63.51
2023-07-25T03:02:19.676Z,63.43
2023-07-25T03:03:21.789Z,63.85
2023-07-25T03:04:23.803Z,62.03
2023-07-25T03:05:28.336Z,61.62
2023-07-25T03:06:30.374Z,62.79
2023-07-25T03:07:32.379Z,61.95
2023-07-25T03:08:34.511Z,62.52
2023-07-25T03:09:38.603Z,62.53
2023-07-25T03:10:40.756Z,63.22
2023-07-25T03:11:42.787Z,64.03
2023-07-25T03:12:44.822Z,64.43
2023-07-25T03:13:46.720Z,64.08
2023-07-25T03:14:48.824Z,64.30
2023-07-25T03:15:51.100Z,65.24
2023-07-25T03:16:53.253Z,65.50
2023-07-25T03:17:55.731Z,65.12
2023-07-25T03:18:57.763Z,65.17
2023-07-25T03:19:59.910Z,65.40
2023-07-25T03:21:01.910Z,66.07
2023-07-25T03:22:03.953Z,65.31
2023-07-25T03:23:05.917Z,65.76
2023-07-25T03:24:07.893Z,65.72
2023-07-25T03:25:10.711Z,66.18
2023-07-25T03:26:12.990Z,65.93
2023-07-25T03:27:15.941Z,66.23
2023-07-25T03:28:17.903Z,66.47
2023-07-25T03:29:19.993Z,66.24
2023-07-25T03:30:22.196Z,66.36
2023-07-25T03:31:24.640Z,66.24
2023-07-25T03:32:26.603Z,66.59
2023-07-25T03:33:31.554Z,66.40
2023-07-25T03:34:33.720Z,65.39
2023-07-25T03:35:36.042Z,65.01
2023-07-25T03:36:38.117Z,65.00
2023-07-25T03:37:40.257Z,65.22
2023-07-25T03:38:42.298Z,64.55
2023-07-25T03:39:44.598Z,64.09
2023-07-25T03:40:46.748Z,62.61
2023-07-25T03:41:48.950Z,62.60
2023-07-25T03:42:50.888Z,62.76
2023-07-25T03:43:52.850Z,63.22
2023-07-25T03:44:55.068Z,63.03
2023-07-25T03:45:57.276Z,63.36
2023-07-25T03:46:59.467Z,63.15
2023-07-25T03:48:01.596Z,61.65
2023-07-25T03:49:03.818Z,61.64
2023-07-25T03:50:06.306Z,61.50
2023-07-25T03:51:08.435Z,61.10
2023-07-25T03:52:10.483Z,59.28
2023-07-25T03:53:12.575Z,60.60
2023-07-25T03:54:14.771Z,60.92
2023-07-25T03:55:16.899Z,58.76
2023-07-25T03:56:19.070Z,58.53
2023-07-25T03:57:21.359Z,58.51
2023-07-25T03:58:23.395Z,58.33
2023-07-25T03:59:25.448Z,57.07
2023-07-25T04:00:27.729Z,57.01
2023-07-25T04:01:30.355Z,57.96
2023-07-25T04:02:32.625Z,58.01
2023-07-25T04:03:34.813Z,58.03
2023-07-25T04:04:36.983Z,58.11
2023-07-25T04:05:39.039Z,57.26
2023-07-25T04:06:41.225Z,57.37
2023-07-25T04:07:43.246Z,57.51
2023-07-25T04:08:45.671Z,57.18
2023-07-25T04:09:47.943Z,56.35
2023-07-25T04:10:50.013Z,56.30
2023-07-25T04:11:51.959Z,54.38
2023-07-25T04:12:53.982Z,54.95
2023-07-25T04:13:55.936Z,55.48
2023-07-25T04:14:58.207Z,55.23
2023-07-25T04:16:00.169Z,56.13
2023-07-25T04:17:02.124Z,56.48
2023-07-25T04:18:04.301Z,55.14
2023-07-25T04:19:06.387Z,54.71
2023-07-25T04:20:09.259Z,54.84
2023-07-25T04:21:11.392Z,54.42
2023-07-25T04:22:13.486Z,53.76
2023-07-25T04:23:16.390Z,53.87
2023-07-25T04:24:18.348Z,53.09
2023-07-25T04:25:20.628Z,53.52
2023-07-25T04:26:22.863Z,52.36
2023-07-25T04:27:24.935Z,51.72
2023-07-25T04:28:27.362Z,51.27
2023-07-25T04:29:30.221Z,51.25
2023-07-25T04:30:32.236Z,50.24
2023-07-25T04:31:34.777Z,50.31
2023-07-25T04:32:37.168Z,51.56
2023-07-25T04:33:39.376Z,51.25
2023-07-25T04:34:41.397Z,50.82
2023-07-25T04:35:46.602Z,50.81
2023-07-25T04:36:48.649Z,51.06
2023-07-25T04:37:50.639Z,51.56
2023-07-25T04:38:52.680Z,51.19
2023-07-25T04:39:54.709Z,51.17
2023-07-25T04:40:58.364Z,51.56
2023-07-25T04:42:00.304Z,53.27
2023-07-25T04:43:02.256Z,50.60
2023-07-25T04:44:04.596Z,50.39
2023-07-25T04:45:07.098Z,50.18
2023-07-25T04:46:09.253Z,50.26
2023-07-25T04:47:11.232Z,50.79
2023-07-25T04:48:13.390Z,50.96
2023-07-25T04:49:15.643Z,51.23
2023-07-25T04:50:17.743Z,51.30
2023-07-25T04:51:19.958Z,51.50
2023-07-25T04:52:22.180Z,51.48
2023-07-25T04:53:24.187Z,51.22
2023-07-25T04:54:26.169Z,52.04
2023-07-25T04:55:28.201Z,52.22
2023-07-25T04:56:30.320Z,51.27
2023-07-25T04:57:32.394Z,50.88
2023-07-25T04:58:35.289Z,50.62
2023-07-25T04:59:37.295Z,50.63
2023-07-25T05:00:39.395Z,50.15
2023-07-25T05:01:41.390Z,50.51
2023-07-25T05:02:43.399Z,50.22
2023-07-25T05:03:45.531Z,49.86
2023-07-25T05:04:48.206Z,49.74
2023-07-25T05:05:53.083Z,49.60
2023-07-25T05:06:55.621Z,50.11
2023-07-25T05:07:57.612Z,49.32
2023-07-25T05:08:59.671Z,50.01
2023-07-25T05:10:01.810Z,50.22
2023-07-25T05:11:06.415Z,50.62
2023-07-25T05:12:13.226Z,50.29
2023-07-25T05:13:15.253Z,50.14
2023-07-25T05:14:17.188Z,50.56
2023-07-25T05:15:19.262Z,50.87
2023-07-25T05:16:21.426Z,50.90
2023-07-25T05:17:23.516Z,50.27
2023-07-25T05:18:25.589Z,50.63
2023-07-25T05:19:27.876Z,49.89
2023-07-25T05:20:29.985Z,49.64
2023-07-25T05:21:32.345Z,49.36
2023-07-25T05:22:34.547Z,49.23
2023-07-25T05:23:36.639Z,49.53
2023-07-25T05:24:38.750Z,48.71
2023-07-25T05:25:40.929Z,48.91
2023-07-25T05:26:42.988Z,49.17
2023-07-25T05:27:45.157Z,48.92
2023-07-25T05:28:47.138Z,48.81
2023-07-25T05:29:49.394Z,48.94
2023-07-25T05:30:51.375Z,48.96
2023-07-25T05:31:53.616Z,49.16
2023-07-25T05:32:55.778Z,48.89
2023-07-25T05:33:58.148Z,48.85
2023-07-25T05:35:00.139Z,48.57
2023-07-25T05:36:05.855Z,48.72
2023-07-25T05:37:07.903Z,49.13
2023-07-25T05:38:10.063Z,48.74
2023-07-25T05:39:12.153Z,48.94
2023-07-25T05:40:14.221Z,49.28
2023-07-25T05:41:16.286Z,49.37
2023-07-25T05:42:18.564Z,49.51
2023-07-25T05:43:20.569Z,49.74
2023-07-25T05:44:22.647Z,50.05
2023-07-25T05:45:25.008Z,50.46
2023-07-25T05:46:27.334Z,50.74
2023-07-25T05:47:30.132Z,50.30
2023-07-25T05:48:32.420Z,50.93
2023-07-25T05:49:34.720Z,50.57
2023-07-25T05:50:36.795Z,50.54
2023-07-25T05:51:38.866Z,50.73
2023-07-25T05:52:41.032Z,50.68
2023-07-25T05:53:43.268Z,50.32
2023-07-25T05:54:45.703Z,50.38
2023-07-25T05:55:47.976Z,50.13
2023-07-25T05:56:50.188Z,50.62
2023-07-25T05:57:52.363Z,50.61
2023-07-25T05:58:54.411Z,50.46
2023-07-25T05:59:56.469Z,50.74
2023-07-25T06:00:58.728Z,50.57
2023-07-25T06:02:00.749Z,50.56
2023-07-25T06:03:03.116Z,50.79
2023-07-25T06:04:05.454Z,50.64
2023-07-25T06:05:08.304Z,50.58
2023-07-25T06:06:10.256Z,50.75
2023-07-25T06:07:12.288Z,50.76
2023-07-25T06:08:14.352Z,50.04
2023-07-25T06:09:16.831Z,50.04
2023-07-25T06:10:18.806Z,49.95
2023-07-25T06:11:22.604Z,49.69
2023-07-25T06:12:26.889Z,49.35
2023-07-25T06:13:29.012Z,48.98
2023-07-25T06:14:31.123Z,48.63
2023-07-25T06:15:37.804Z,48.46
2023-07-25T06:16:40.046Z,47.86
2023-07-25T06:17:42.215Z,47.19
2023-07-25T06:18:44.409Z,47.55
2023-07-25T06:19:48.759Z,47.16
2023-07-25T06:20:51.460Z,46.42
2023-07-25T06:21:53.527Z,46.27
2023-07-25T06:22:55.720Z,45.87
2023-07-25T06:23:57.778Z,45.85
2023-07-25T06:24:59.833Z,46.45
2023-07-25T06:26:02.070Z,45.52
2023-07-25T06:27:05.419Z,45.34
2023-07-25T06:28:07.891Z,45.53
2023-07-25T06:29:10.277Z,45.74
2023-07-25T06:30:12.631Z,45.94
2023-07-25T06:31:14.887Z,46.05
2023-07-25T06:32:17.300Z,45.78
2023-07-25T06:33:19.420Z,45.71
2023-07-25T06:34:21.464Z,45.57
2023-07-25T06:35:23.673Z,45.28
2023-07-25T06:36:26.226Z,45.42
2023-07-25T06:37:28.236Z,45.36
2023-07-25T06:38:30.404Z,44.86
2023-07-25T06:39:32.469Z,45.19
2023-07-25T06:40:34.604Z,44.91
2023-07-25T06:41:36.820Z,44.32
2023-07-25T06:42:39.009Z,44.46
2023-07-25T06:43:41.125Z,44.65
2023-07-25T06:44:43.230Z,44.33
2023-07-25T06:45:45.832Z,44.69
2023-07-25T06:46:48.436Z,44.28
2023-07-25T06:47:50.562Z,43.76
2023-07-25T06:48:53.759Z,43.66
2023-07-25T06:49:55.991Z,43.05
2023-07-25T06:50:58.176Z,43.45
2023-07-25T06:52:01.622Z,42.42
2023-07-25T06:53:04.590Z,41.80
2023-07-25T06:54:06.661Z,42.18
2023-07-25T06:55:10.268Z,41.95
2023-07-25T06:56:13.039Z,42.23
2023-07-25T06:57:15.289Z,41.66
2023-07-25T06:58:17.255Z,41.74
2023-07-25T06:59:19.748Z,41.83
2023-07-25T07:00:23.000Z,42.11
2023-07-25T07:01:29.516Z,41.71
2023-07-25T07:02:32.116Z,42.25
2023-07-25T07:03:34.327Z,41.59
2023-07-25T07:04:36.526Z,41.15
2023-07-25T07:05:41.090Z,41.57
2023-07-25T07:06:43.280Z,41.19
2023-07-25T07:07:45.340Z,41.41
2023-07-25T07:08:47.390Z,41.21
2023-07-25T07:09:50.200Z,41.14
2023-07-25T07:10:56.113Z,41.10
2023-07-25T07:11:58.340Z,41.46
2023-07-25T07:13:01.145Z,41.40
2023-07-25T07:14:03.385Z,41.52
2023-07-25T07:15:06.089Z,41.99
2023-07-25T07:16:10.441Z,41.71
2023-07-25T07:17:12.752Z,41.38
2023-07-25T07:18:15.119Z,41.33
2023-07-25T07:19:17.208Z,41.45
2023-07-25T07:20:19.625Z,41.04
2023-07-25T07:21:21.716Z,40.75
2023-07-25T07:22:25.258Z,41.09
2023-07-25T07:23:27.310Z,41.07
2023-07-25T07:24:29.953Z,40.99
2023-07-25T07:25:32.016Z,41.50
2023-07-25T07:26:34.172Z,41.58
2023-07-25T07:27:36.273Z,40.87
2023-07-25T07:28:38.515Z,41.06
2023-07-25T07:29:40.546Z,41.20
2023-07-25T07:30:42.789Z,41.29
2023-07-25T07:31:44.903Z,40.90
2023-07-25T07:32:47.937Z,40.68
2023-07-25T07:33:50.214Z,40.66
2023-07-25T07:34:52.333Z,40.74
2023-07-25T07:35:54.499Z,40.82
2023-07-25T07:36:56.658Z,40.26
2023-07-25T07:37:59.059Z,39.94
2023-07-25T07:39:01.142Z,39.72
2023-07-25T07:40:04.814Z,40.28
2023-07-25T07:41:07.000Z,40.25
2023-07-25T07:42:09.412Z,40.11
2023-07-25T07:43:11.560Z,39.98
2023-07-25T07:44:13.779Z,40.39
2023-07-25T07:45:16.025Z,40.71
2023-07-25T07:46:18.188Z,40.70
2023-07-25T07:47:20.332Z,40.31
2023-07-25T07:48:22.384Z,40.34
2023-07-25T07:49:24.430Z,40.30
2023-07-25T07:50:29.639Z,40.04
2023-07-25T07:51:32.241Z,40.36
2023-07-25T07:52:43.742Z,39.74
2023-07-25T07:53:46.245Z,39.85
2023-07-25T07:54:48.495Z,39.28
2023-07-25T07:55:50.682Z,39.11
2023-07-25T07:56:52.752Z,39.33
2023-07-25T07:57:54.979Z,39.65
2023-07-25T07:58:57.093Z,39.73
2023-07-25T07:59:59.552Z,39.43
2023-07-25T08:01:01.611Z,40.26
2023-07-25T08:02:03.995Z,40.44
2023-07-25T08:03:06.417Z,39.94
2023-07-25T08:04:08.773Z,39.90
2023-07-25T08:05:12.833Z,40.12
2023-07-25T08:06:15.596Z,40.38
2023-07-25T08:07:17.968Z,40.18
2023-07-25T08:08:20.017Z,39.61
2023-07-25T08:09:22.170Z,39.93
2023-07-25T08:10:26.456Z,39.89
2023-07-25T08:11:28.506Z,39.83
2023-07-25T08:12:31.111Z,39.95
2023-07-25T08:13:33.339Z,39.83
2023-07-25T08:14:35.399Z,39.79
2023-07-25T08:15:37.541Z,39.43
2023-07-25T08:16:40.394Z,38.71
2023-07-25T08:17:42.628Z,38.52
2023-07-25T08:18:44.676Z,38.74
2023-07-25T08:19:46.616Z,38.95
2023-07-25T08:20:48.757Z,38.81
2023-07-25T08:21:54.261Z,38.87
2023-07-25T08:22:56.493Z,38.38
2023-07-25T08:23:58.609Z,38.50
2023-07-25T08:25:00.920Z,38.77
2023-07-25T08:26:03.269Z,39.04
2023-07-25T08:27:05.808Z,38.98
2023-07-25T08:28:08.183Z,39.21
2023-07-25T08:29:11.809Z,39.06
2023-07-25T08:30:14.096Z,39.13
2023-07-25T08:31:16.215Z,39.19
2023-07-25T08:32:18.457Z,38.79
2023-07-25T08:33:21.174Z,38.69
2023-07-25T08:34:23.276Z,39.29
2023-07-25T08:35:25.418Z,38.84
2023-07-25T08:36:27.510Z,38.78
2023-07-25T08:37:29.667Z,39.29
2023-07-25T08:38:31.744Z,38.84
2023-07-25T08:39:35.143Z,38.44
2023-07-25T08:40:37.191Z,38.49
2023-07-25T08:41:51.113Z,39.06
2023-07-25T08:42:59.077Z,38.81
2023-07-25T08:44:04.289Z,38.77
2023-07-25T08:45:10.757Z,38.86
2023-07-25T08:46:15.944Z,38.95
2023-07-25T08:47:28.299Z,39.06
2023-07-25T08:48:33.144Z,39.21
2023-07-25T08:49:37.402Z,39.42
2023-07-25T08:50:42.121Z,38.94
2023-07-25T08:51:47.950Z,39.06
2023-07-25T08:52:53.188Z,38.48
2023-07-25T08:54:06.930Z,39.25
2023-07-25T08:55:09.559Z,39.12
2023-07-25T08:56:12.052Z,39.25
2023-07-25T08:57:15.178Z,39.02
2023-07-25T08:58:17.600Z,39.27
2023-07-25T08:59:20.430Z,39.56
2023-07-25T09:00:23.271Z,39.68
2023-07-25T09:01:26.578Z,39.23
2023-07-25T09:02:29.579Z,38.95
2023-07-25T09:03:33.130Z,39.14
2023-07-25T09:04:36.910Z,39.10
2023-07-25T09:05:38.898Z,39.74
2023-07-25T09:06:41.080Z,38.84
2023-07-25T09:07:43.191Z,38.91
2023-07-25T09:08:45.209Z,39.15
2023-07-25T09:09:47.739Z,39.73
2023-07-25T09:10:50.446Z,40.06
2023-07-25T09:11:52.997Z,39.55
2023-07-25T09:12:55.770Z,39.88
2023-07-25T09:13:57.953Z,40.22
2023-07-25T09:15:00.286Z,39.92
2023-07-25T09:16:02.323Z,40.34
2023-07-25T09:17:07.851Z,40.67
2023-07-25T09:18:09.915Z,40.68
2023-07-25T09:19:13.018Z,40.23
2023-07-25T09:20:15.735Z,40.37
2023-07-25T09:21:17.887Z,40.59
2023-07-25T09:22:31.404Z,40.45
2023-07-25T09:23:33.348Z,40.71
2023-07-25T09:24:39.778Z,40.37
2023-07-25T09:25:42.248Z,40.77
2023-07-25T09:26:52.195Z,40.10
2023-07-25T09:27:55.215Z,40.60
2023-07-25T09:29:00.860Z,40.17
2023-07-25T09:30:13.085Z,40.44
2023-07-25T09:31:15.184Z,40.50
2023-07-25T09:32:26.437Z,40.49
2023-07-25T09:33:29.879Z,40.85
2023-07-25T09:34:31.897Z,40.84
2023-07-25T09:35:34.376Z,40.86
2023-07-25T09:36:36.485Z,40.84
2023-07-25T09:37:38.951Z,40.76
2023-07-25T09:38:55.745Z,40.69
2023-07-25T09:39:58.359Z,40.75
2023-07-25T09:41:04.187Z,40.33
2023-07-25T09:42:08.822Z,40.53
2023-07-25T09:43:21.567Z,40.68
2023-07-25T09:44:23.674Z,40.89
2023-07-25T09:45:25.820Z,41.60
2023-07-25T09:46:27.905Z,43.08
2023-07-25T09:47:30.066Z,44.31
2023-07-25T09:48:34.109Z,46.10
2023-07-25T09:49:36.184Z,47.02
2023-07-25T09:50:38.391Z,48.63
2023-07-25T09:51:57.348Z,50.94
2023-07-25T09:53:02.989Z,53.57
2023-07-25T09:54:07.192Z,55.04
2023-07-25T09:55:10.447Z,56.39
2023-07-25T09:56:12.844Z,58.76
2023-07-25T09:57:14.906Z,60.70
2023-07-25T09:58:17.131Z,61.19
2023-07-25T09:59:19.421Z,62.71
2023-07-25T10:00:22.154Z,64.68
2023-07-25T10:01:25.783Z,64.80
2023-07-25T10:02:27.956Z,64.90
2023-07-25T10:03:31.243Z,65.59
2023-07-25T10:04:39.929Z,65.02
2023-07-25T10:05:46.287Z,65.79
2023-07-25T10:06:49.119Z,64.85
2023-07-25T10:07:54.780Z,63.72
2023-07-25T10:08:58.852Z,64.78
2023-07-25T10:10:02.074Z,64.62
2023-07-25T10:11:04.637Z,65.05
2023-07-25T10:12:08.379Z,63.84
2023-07-25T10:13:10.676Z,63.37
2023-07-25T10:14:12.849Z,64.51
2023-07-25T10:15:16.857Z,63.48
2023-07-25T10:16:21.304Z,63.10
2023-07-25T10:17:25.740Z,63.79
2023-07-25T10:18:29.034Z,64.32
2023-07-25T10:19:49.734Z,64.16
2023-07-25T10:20:53.863Z,63.71
2023-07-25T10:21:56.350Z,64.35
2023-07-25T10:23:12.777Z,64.23
2023-07-25T10:24:15.308Z,65.30
2023-07-25T10:25:22.528Z,64.83
2023-07-25T10:26:25.283Z,65.57
2023-07-25T10:27:28.041Z,65.18
2023-07-25T10:28:30.092Z,65.20
2023-07-25T10:29:47.384Z,64.49
2023-07-25T10:30:50.252Z,64.67
2023-07-25T10:31:53.147Z,64.87
2023-07-25T10:32:59.789Z,64.05
2023-07-25T10:34:04.634Z,64.86
2023-07-25T10:35:07.348Z,64.21
2023-07-25T10:36:25.418Z,63.81
2023-07-25T10:37:30.479Z,63.32
2023-07-25T10:38:38.078Z,63.64
2023-07-25T10:39:40.244Z,64.34
2023-07-25T10:40:56.541Z,64.53
2023-07-25T10:42:00.698Z,63.44
2023-07-25T10:43:07.430Z,64.02
2023-07-25T10:44:10.132Z,64.39
2023-07-25T10:45:31.004Z,64.63
2023-07-25T10:46:35.160Z,64.40
2023-07-25T10:47:45.158Z,65.58
2023-07-25T10:48:47.971Z,65.08
2023-07-25T10:49:56.874Z,63.67
2023-07-25T10:51:00.224Z,63.74
2023-07-25T10:52:04.100Z,63.36
2023-07-25T10:53:21.775Z,62.39
2023-07-25T10:54:28.527Z,62.27
2023-07-25T10:55:30.586Z,62.31
2023-07-25T10:56:32.582Z,61.76
2023-07-25T10:57:34.694Z,61.80
2023-07-25T10:59:01.659Z,60.43
2023-07-25T11:00:10.185Z,60.78
2023-07-25T11:01:38.227Z,60.32
2023-07-25T11:02:44.323Z,58.82
2023-07-25T11:03:46.663Z,59.18
2023-07-25T11:04:48.800Z,59.07
2023-07-25T11:05:50.786Z,59.05
2023-07-25T11:06:54.818Z,58.29
2023-07-25T11:07:58.835Z,58.27
2023-07-25T11:09:01.691Z,58.92
2023-07-25T11:10:04.850Z,59.51
2023-07-25T11:11:08.654Z,59.49
2023-07-25T11:12:11.579Z,60.32
2023-07-25T11:13:13.968Z,59.46
2023-07-25T11:14:19.028Z,58.64
2023-07-25T11:15:32.134Z,59.89
2023-07-25T11:16:43.952Z,59.17
2023-07-25T11:17:47.258Z,59.30
2023-07-25T11:18:52.843Z,59.17
2023-07-25T11:19:55.135Z,58.99
2023-07-25T11:21:08.470Z,59.41
2023-07-25T11:22:12.169Z,58.03
2023-07-25T11:23:14.643Z,57.38
2023-07-25T11:24:16.726Z,58.47
2023-07-25T11:25:19.819Z,58.44
2023-07-25T11:26:23.913Z,58.16
2023-07-25T11:27:26.020Z,58.70
2023-07-25T11:28:28.142Z,58.71
2023-07-25T11:29:30.378Z,58.69
2023-07-25T11:30:32.591Z,58.72
2023-07-25T11:31:37.426Z,58.91
2023-07-25T11:32:40.494Z,59.12
2023-07-25T11:33:43.228Z,59.21
2023-07-25T11:34:50.723Z,57.78
2023-07-25T11:35:56.976Z,57.54
2023-07-25T11:36:59.175Z,57.97
2023-07-25T11:38:03.810Z,58.30
2023-07-25T11:39:07.010Z,57.19
2023-07-25T11:40:29.295Z,57.52
2023-07-25T11:41:31.509Z,56.73
2023-07-25T11:42:33.737Z,57.32
2023-07-25T11:43:35.903Z,56.34
2023-07-25T11:44:37.984Z,55.49
2023-07-25T11:45:40.742Z,54.81
2023-07-25T11:46:46.241Z,54.57
2023-07-25T11:47:51.581Z,54.54
2023-07-25T11:48:54.532Z,53.58
2023-07-25T11:50:05.867Z,51.23
2023-07-25T11:51:12.780Z,50.31
2023-07-25T11:52:15.170Z,49.71
2023-07-25T11:53:19.217Z,49.11
2023-07-25T11:54:21.540Z,48.66
2023-07-25T11:55:24.056Z,49.14
2023-07-25T11:56:26.358Z,47.83
2023-07-25T11:57:28.576Z,47.12
2023-07-25T11:58:30.532Z,46.04
2023-07-25T11:59:39.578Z,46.08
2023-07-25T12:00:42.370Z,46.29
2023-07-25T12:01:44.683Z,46.36
2023-07-25T12:02:47.663Z,45.87
2023-07-25T12:03:50.635Z,46.18
2023-07-25T12:04:52.873Z,45.75
2023-07-25T12:05:59.673Z,45.63
2023-07-25T12:07:01.841Z,46.15
2023-07-25T12:08:04.321Z,45.89
2023-07-25T12:09:06.866Z,45.74
2023-07-25T12:10:09.034Z,45.20
2023-07-25T12:11:16.107Z,45.52
2023-07-25T12:12:18.663Z,46.25
2023-07-25T12:13:20.681Z,45.95
2023-07-25T12:14:23.525Z,46.06
2023-07-25T12:15:45.974Z,47.56
2023-07-25T12:16:47.965Z,47.60
2023-07-25T12:17:50.828Z,47.13
2023-07-25T12:18:54.676Z,47.05
2023-07-25T12:19:57.681Z,49.08
2023-07-25T12:21:00.964Z,46.59
2023-07-25T12:22:09.282Z,47.52
2023-07-25T12:23:11.388Z,46.88
2023-07-25T12:24:16.656Z,47.50
2023-07-25T12:25:20.100Z,47.14
2023-07-25T12:26:22.621Z,47.46
2023-07-25T12:27:24.640Z,47.30
2023-07-25T12:28:26.995Z,47.88
2023-07-25T12:29:29.340Z,47.50
2023-07-25T12:30:31.445Z,47.73
2023-07-25T12:31:34.381Z,47.47
2023-07-25T12:32:36.390Z,47.97
2023-07-25T12:33:45.608Z,48.12
2023-07-25T12:34:47.916Z,47.83
2023-07-25T12:35:49.969Z,48.17
2023-07-25T12:36:53.164Z,48.43
2023-07-25T12:37:55.071Z,48.71
2023-07-25T12:38:57.067Z,49.17
2023-07-25T12:39:59.048Z,49.98
2023-07-25T12:41:01.233Z,51.39
2023-07-25T12:42:03.367Z,51.87
2023-07-25T12:43:06.604Z,53.07
2023-07-25T12:44:08.891Z,53.34
2023-07-25T12:45:11.800Z,53.96
2023-07-25T12:46:13.857Z,53.95
2023-07-25T12:47:16.059Z,54.27
2023-07-25T12:48:18.039Z,54.15
2023-07-25T12:49:20.044Z,54.99
2023-07-25T12:50:22.015Z,55.03
2023-07-25T12:51:24.163Z,55.21
2023-07-25T12:52:26.305Z,55.39
2023-07-25T12:53:28.572Z,55.68
2023-07-25T12:54:30.689Z,55.70
2023-07-25T12:55:32.892Z,56.56
2023-07-25T12:56:35.133Z,56.75
2023-07-25T12:57:38.731Z,56.88
2023-07-25T12:58:41.701Z,57.68
2023-07-25T12:59:43.756Z,58.50
2023-07-25T13:00:45.769Z,58.66
2023-07-25T13:01:49.346Z,60.00
2023-07-25T13:02:51.501Z,59.89
2023-07-25T13:03:53.771Z,60.96
2023-07-25T13:04:56.027Z,61.56
2023-07-25T13:05:58.098Z,62.07
2023-07-25T13:07:00.248Z,62.68
2023-07-25T13:08:02.377Z,63.24
2023-07-25T13:09:04.410Z,62.56
2023-07-25T13:10:08.154Z,62.54
2023-07-25T13:11:10.296Z,63.74
2023-07-25T13:12:12.328Z,63.63
2023-07-25T13:13:15.572Z,64.16
2023-07-25T13:14:17.770Z,65.08
2023-07-25T13:15:19.913Z,64.87
2023-07-25T13:16:22.062Z,66.09
2023-07-25T13:17:24.096Z,65.66
2023-07-25T13:18:26.349Z,66.40
2023-07-25T13:19:28.341Z,66.35
2023-07-25T13:20:30.376Z,66.68
2023-07-25T13:21:32.938Z,65.86
2023-07-25T13:22:35.703Z,66.94
2023-07-25T13:23:38.074Z,67.20
2023-07-25T13:24:40.140Z,67.18
2023-07-25T13:25:45.693Z,67.71
2023-07-25T13:26:47.784Z,67.86
2023-07-25T13:27:49.768Z,67.97
2023-07-25T13:28:51.831Z,67.75
2023-07-25T13:29:55.345Z,67.91
2023-07-25T13:30:57.561Z,67.63
2023-07-25T13:31:59.513Z,68.34
2023-07-25T13:33:01.810Z,68.00
2023-07-25T13:34:03.952Z,69.34
2023-07-25T13:35:06.832Z,67.72
2023-07-25T13:36:08.943Z,68.98